Time;durP1;ratioP1;P1;durP2;ratioP2;P2;SDS_P1;SDS_P2;PMS_P1;PMS_P2;Temp;Humidity;BMP_temperature;BMP_pressure;BME280_temperature;BME280_humidity;BME280_pressure;Samples;Min_cycle;Max_cycle;Signal;HPM_P1;HPM_P2
2023/08/20 00:01:30;;;;;;;6.40;4.47;;;28.80;96.70;;;;;;5058208;28;20041;-79
2023/08/20 00:03:58;;;;;;;10.95;5.03;;;28.70;96.70;;;;;;5061933;28;20355;-81
2023/08/20 00:06:27;;;;;;;5.25;4.07;;;28.70;96.70;;;;;;5045758;28;20045;-80
2023/08/20 00:08:57;;;;;;;8.05;4.97;;;28.60;96.70;;;;;;5056149;28;20133;-79
2023/08/20 00:11:25;;;;;;;6.40;4.70;;;28.60;96.70;;;;;;5054305;28;20040;-79
2023/08/20 00:13:54;;;;;;;6.07;4.65;;;28.60;96.70;;;;;;5045246;28;20057;-81
2023/08/20 00:16:22;;;;;;;5.20;4.22;;;28.60;96.70;;;;;;5044408;28;20570;-81
2023/08/20 00:18:51;;;;;;;8.35;3.75;;;28.60;96.70;;;;;;5044597;28;20044;-80
2023/08/20 00:21:20;;;;;;;5.57;4.03;;;28.60;96.70;;;;;;5056097;28;20095;-81
2023/08/20 00:23:49;;;;;;;5.03;3.95;;;28.60;96.70;;;;;;5054901;28;20047;-79
2023/08/20 00:26:19;;;;;;;6.63;4.38;;;28.60;96.70;;;;;;5058525;28;20128;-80
2023/08/20 00:28:47;;;;;;;4.45;3.90;;;28.50;96.70;;;;;;5045282;28;20044;-80
2023/08/20 00:31:16;;;;;;;8.85;4.15;;;28.40;96.70;;;;;;5042460;28;20045;-81
2023/08/20 00:33:44;;;;;;;7.82;4.40;;;28.50;96.70;;;;;;5053837;28;20041;-80
2023/08/20 00:36:32;;;;;;;7.45;4.65;;;28.50;96.70;;;;;;5045544;28;20047;-80
2023/08/20 00:39:00;;;;;;;6.90;4.30;;;28.40;96.70;;;;;;5044829;28;20045;-80
2023/08/20 00:41:30;;;;;;;6.65;4.13;;;28.30;96.70;;;;;;5062467;28;20052;-80
2023/08/20 00:43:58;;;;;;;6.80;4.55;;;28.40;96.70;;;;;;5050827;28;20499;-80
2023/08/20 00:46:27;;;;;;;5.85;3.88;;;28.20;96.70;;;;;;5042732;28;20060;-80
2023/08/20 00:48:56;;;;;;;6.15;4.30;;;28.10;96.70;;;;;;5049511;28;20051;-80
2023/08/20 00:51:25;;;;;;;7.93;4.63;;;28.20;96.70;;;;;;5051350;28;20494;-81
2023/08/20 00:53:53;;;;;;;7.35;4.75;;;28.10;96.70;;;;;;5048655;28;20042;-80
2023/08/20 00:56:22;;;;;;;4.93;4.40;;;28.10;96.70;;;;;;5052353;28;20069;-80
2023/08/20 00:58:53;;;;;;;6.65;4.57;;;28.10;96.70;;;;;;5048214;28;20053;-80
2023/08/20 01:01:21;;;;;;;7.32;4.90;;;28.00;96.70;;;;;;5029828;28;20040;-79
2023/08/20 01:03:50;;;;;;;6.18;4.88;;;28.00;96.70;;;;;;5048675;28;20036;-81
2023/08/20 01:06:27;;;;;;;4.20;3.80;;;28.10;96.70;;;;;;5061668;28;20048;-80
2023/08/20 01:09:03;;;;;;;6.80;4.38;;;27.90;96.70;;;;;;5048019;28;20053;-79
2023/08/20 01:11:37;;;;;;;6.28;4.30;;;27.90;96.70;;;;;;5027459;28;20179;-80
2023/08/20 01:14:16;;;;;;;5.13;4.28;;;27.90;96.70;;;;;;5048839;28;20525;-79
2023/08/20 01:16:45;;;;;;;7.47;4.38;;;28.00;96.70;;;;;;5042603;28;20046;-81
2023/08/20 01:19:18;;;;;;;5.78;4.38;;;27.80;96.70;;;;;;5054879;28;20041;-80
2023/08/20 01:21:55;;;;;;;5.18;4.57;;;27.70;96.70;;;;;;5051436;28;20167;-80
2023/08/20 01:24:39;;;;;;;8.55;4.90;;;27.80;96.70;;;;;;5049047;28;20040;-80
2023/08/20 01:27:26;;;;;;;6.57;4.80;;;27.70;96.70;;;;;;5051258;28;20571;-80
2023/08/20 01:29:56;;;;;;;;;;;27.70;96.70;;;;;;5029424;28;20057;-82
2023/08/20 01:32:25;;;;;;;6.78;5.18;;;27.70;96.70;;;;;;5046412;28;19924;-80
2023/08/20 01:34:53;;;;;;;5.00;4.47;;;27.70;96.70;;;;;;5058414;28;20037;-80
2023/08/20 01:37:22;;;;;;;6.35;4.57;;;27.70;96.70;;;;;;5047273;28;20052;-81
2023/08/20 01:39:50;;;;;;;6.40;4.25;;;27.60;96.70;;;;;;5058558;28;20559;-80
2023/08/20 01:42:19;;;;;;;6.93;4.28;;;27.60;96.70;;;;;;5063358;28;20771;-81
2023/08/20 01:44:47;;;;;;;6.18;4.22;;;27.70;96.70;;;;;;5055969;28;20132;-80
2023/08/20 01:47:17;;;;;;;5.53;4.88;;;27.70;96.70;;;;;;5056982;28;20045;-80
2023/08/20 01:49:45;;;;;;;6.03;4.30;;;27.60;96.70;;;;;;5047578;28;20397;-81
2023/08/20 01:52:13;;;;;;;7.03;4.93;;;27.60;96.70;;;;;;5046923;28;20044;-80
2023/08/20 01:54:42;;;;;;;8.02;4.57;;;27.60;96.70;;;;;;5062665;28;20040;-80
2023/08/20 01:57:10;;;;;;;7.28;4.72;;;27.60;96.70;;;;;;5046657;28;20045;-80
2023/08/20 01:59:39;;;;;;;5.30;4.53;;;27.50;96.70;;;;;;5063210;28;20041;-80
2023/08/20 02:02:07;;;;;;;7.57;4.75;;;27.40;96.70;;;;;;5031721;28;20052;-80
2023/08/20 02:04:37;;;;;;;6.65;4.65;;;27.40;96.70;;;;;;5065086;28;20064;-80
2023/08/20 02:07:06;;;;;;;6.13;4.30;;;27.30;96.70;;;;;;5047397;28;20414;-80
2023/08/20 02:09:34;;;;;;;5.80;4.65;;;27.20;96.70;;;;;;5032129;28;20081;-80
2023/08/20 02:12:04;;;;;;;7.20;4.60;;;27.20;96.70;;;;;;5047549;28;20589;-80
2023/08/20 02:14:34;;;;;;;6.47;4.30;;;27.20;96.70;;;;;;5056937;28;20052;-80
2023/08/20 02:17:03;;;;;;;5.95;4.88;;;27.20;96.70;;;;;;5046955;28;20052;-80
2023/08/20 02:19:31;;;;;;;6.57;4.63;;;27.10;96.70;;;;;;5063375;28;20036;-80
2023/08/20 02:22:01;;;;;;;5.25;4.30;;;27.20;96.70;;;;;;5047147;28;20057;-80
2023/08/20 02:24:29;;;;;;;5.45;4.68;;;27.20;96.70;;;;;;5047950;28;20066;-79
2023/08/20 02:26:58;;;;;;;5.40;4.45;;;27.10;96.70;;;;;;5031314;28;20076;-79
2023/08/20 02:29:26;;;;;;;4.45;4.05;;;27.00;96.70;;;;;;5045282;28;20514;-79
2023/08/20 02:31:54;;;;;;;6.50;4.82;;;27.10;96.70;;;;;;5064775;28;20072;-79
2023/08/20 02:34:23;;;;;;;12.45;4.68;;;27.20;96.70;;;;;;5046219;28;20095;-79
2023/08/20 02:36:51;;;;;;;6.78;4.90;;;27.10;96.70;;;;;;5046333;28;20045;-79
2023/08/20 02:39:21;;;;;;;5.20;4.40;;;27.20;96.70;;;;;;5058448;28;20123;-79
2023/08/20 02:41:49;;;;;;;6.82;5.22;;;27.10;96.70;;;;;;5047435;28;20075;-79
2023/08/20 02:44:17;;;;;;;6.63;5.00;;;27.10;96.70;;;;;;5047162;28;20120;-79
2023/08/20 02:46:47;;;;;;;5.38;4.80;;;27.10;96.70;;;;;;5053861;28;20501;-79
2023/08/20 02:49:15;;;;;;;7.47;4.90;;;27.00;96.70;;;;;;5046446;28;20449;-79
2023/08/20 02:51:43;;;;;;;5.68;5.13;;;26.90;96.70;;;;;;5062879;28;20079;-80
2023/08/20 02:54:12;;;;;;;8.63;5.00;;;26.90;96.70;;;;;;5040842;28;20041;-80
2023/08/20 02:56:42;;;;;;;4.78;4.30;;;26.90;96.70;;;;;;5045637;28;20049;-79
2023/08/20 02:59:10;;;;;;;7.63;4.80;;;27.00;96.70;;;;;;5037691;28;20180;-79
2023/08/20 03:01:39;;;;;;;10.70;4.80;;;26.90;96.70;;;;;;5046306;28;20036;-79
2023/08/20 03:04:07;;;;;;;5.57;4.53;;;27.00;96.70;;;;;;5059190;28;20514;-79
2023/08/20 03:06:35;;;;;;;6.93;4.90;;;26.90;96.70;;;;;;5047511;28;20048;-78
2023/08/20 03:09:04;;;;;;;10.30;4.95;;;26.90;96.70;;;;;;5045767;28;20045;-80
2023/08/20 03:11:32;;;;;;;7.15;5.03;;;26.60;96.70;;;;;;5044448;28;20044;-79
2023/08/20 03:14:02;;;;;;;5.97;4.82;;;26.70;96.70;;;;;;5042341;28;20048;-79
2023/08/20 03:16:32;;;;;;;6.88;4.70;;;26.80;96.70;;;;;;5047035;28;20135;-79
2023/08/20 03:19:02;;;;;;;5.20;4.50;;;26.70;96.70;;;;;;5046567;28;20102;-79
2023/08/20 03:21:31;;;;;;;5.78;4.93;;;26.60;96.70;;;;;;5079985;28;20101;-79
2023/08/20 03:23:59;;;;;;;5.80;5.25;;;26.60;96.70;;;;;;5078685;28;20410;-80
2023/08/20 03:26:27;;;;;;;10.02;4.80;;;26.60;96.70;;;;;;5027749;28;20033;-79
2023/08/20 03:28:56;;;;;;;7.65;5.40;;;26.60;96.70;;;;;;5029751;28;20139;-80
2023/08/20 03:31:26;;;;;;;6.75;4.88;;;26.50;96.70;;;;;;5046710;28;20066;-79
2023/08/20 03:33:55;;;;;;;5.72;4.53;;;26.50;96.70;;;;;;5042649;28;20497;-80
2023/08/20 03:36:23;;;;;;;6.65;5.25;;;26.50;96.70;;;;;;5045380;28;20114;-81
2023/08/20 03:38:52;;;;;;;5.43;4.78;;;26.60;96.70;;;;;;5044448;28;20052;-78
2023/08/20 03:41:21;;;;;;;7.13;5.22;;;26.60;96.70;;;;;;5046036;28;20425;-80
2023/08/20 03:43:50;;;;;;;5.93;4.80;;;26.60;96.70;;;;;;5030281;28;20236;-80
2023/08/20 03:46:18;;;;;;;5.35;4.72;;;26.60;96.70;;;;;;5050276;28;20123;-79
2023/08/20 03:48:48;;;;;;;6.20;5.28;;;26.50;96.70;;;;;;5044660;28;20563;-79
2023/08/20 03:51:17;;;;;;;7.90;4.55;;;26.40;96.70;;;;;;5028699;28;20573;-79
2023/08/20 03:53:45;;;;;;;8.30;5.20;;;26.40;96.70;;;;;;5028946;28;20164;-79
2023/08/20 03:56:13;;;;;;;5.53;4.82;;;26.40;96.70;;;;;;5042173;28;20049;-79
2023/08/20 03:58:43;;;;;;;6.28;5.05;;;26.40;96.70;;;;;;5042416;28;20495;-79
2023/08/20 04:01:12;;;;;;;8.10;5.00;;;26.30;96.70;;;;;;5045885;28;20563;-80
2023/08/20 04:03:40;;;;;;;5.90;5.15;;;26.20;96.70;;;;;;5054941;28;20076;-79
2023/08/20 04:06:10;;;;;;;6.82;5.05;;;26.00;96.70;;;;;;5043833;28;20483;-79
2023/08/20 04:08:38;;;;;;;7.65;5.43;;;26.10;96.70;;;;;;5045344;28;20051;-79
2023/08/20 04:11:07;;;;;;;7.00;6.40;;;26.30;96.70;;;;;;5046473;28;20036;-79
2023/08/20 04:13:35;;;;;;;6.85;6.22;;;26.20;96.70;;;;;;5045261;28;20049;-80
2023/08/20 04:16:04;;;;;;;10.05;6.50;;;26.00;96.70;;;;;;5061829;28;20102;-80
2023/08/20 04:18:33;;;;;;;8.50;5.72;;;26.10;96.70;;;;;;5044265;28;20143;-79
2023/08/20 04:21:02;;;;;;;6.43;5.82;;;26.10;96.70;;;;;;5042876;28;20053;-80
2023/08/20 04:23:31;;;;;;;6.60;5.60;;;26.10;96.70;;;;;;5045117;28;20531;-79
2023/08/20 04:26:00;;;;;;;6.07;5.50;;;26.10;96.70;;;;;;5049826;28;20119;-80
2023/08/20 04:28:28;;;;;;;5.68;5.00;;;26.10;96.70;;;;;;5029195;28;20057;-80
2023/08/20 04:30:57;;;;;;;5.82;4.90;;;26.10;96.70;;;;;;5047707;28;20588;-79
2023/08/20 04:33:33;;;;;;;5.75;5.25;;;26.00;96.70;;;;;;5049282;28;20047;-80
2023/08/20 04:36:02;;;;;;;7.93;5.88;;;26.10;96.70;;;;;;5049929;28;20155;-79
2023/08/20 04:38:31;;;;;;;7.65;4.97;;;26.00;96.70;;;;;;5045724;28;20068;-79
2023/08/20 04:41:01;;;;;;;6.90;5.53;;;26.00;96.70;;;;;;5056756;28;20053;-79
2023/08/20 04:43:29;;;;;;;6.93;4.90;;;25.90;96.70;;;;;;5049529;28;20051;-80
2023/08/20 04:45:59;;;;;;;8.35;5.50;;;25.90;96.70;;;;;;5056731;28;20060;-79
2023/08/20 04:48:29;;;;;;;7.93;5.60;;;25.80;96.70;;;;;;5047774;28;20152;-80
2023/08/20 04:50:59;;;;;;;6.07;5.15;;;25.80;96.70;;;;;;5032816;28;20131;-80
2023/08/20 04:53:28;;;;;;;8.23;5.40;;;25.90;96.70;;;;;;5047359;28;20143;-79
2023/08/20 04:55:59;;;;;;;5.78;4.95;;;26.00;96.70;;;;;;5047686;28;20060;-80
2023/08/20 04:58:27;;;;;;;5.80;5.30;;;26.00;96.70;;;;;;5032344;28;20506;-79
2023/08/20 05:00:56;;;;;;;6.50;5.43;;;26.10;96.70;;;;;;5067088;28;20044;-80
2023/08/20 05:03:25;;;;;;;8.77;5.45;;;26.10;96.70;;;;;;5066854;28;20044;-80
2023/08/20 05:05:54;;;;;;;6.28;5.55;;;25.90;96.70;;;;;;5049080;28;20131;-79
2023/08/20 05:08:22;;;;;;;6.35;5.05;;;26.00;96.70;;;;;;5046581;28;20487;-79
2023/08/20 05:10:51;;;;;;;6.63;5.50;;;26.10;96.70;;;;;;5048646;28;20053;-79
2023/08/20 05:13:21;;;;;;;6.30;5.43;;;26.10;96.70;;;;;;5051023;28;20072;-79
2023/08/20 05:15:50;;;;;;;5.45;4.95;;;26.20;96.70;;;;;;5048973;28;20139;-79
2023/08/20 05:18:19;;;;;;;6.38;5.18;;;26.20;96.70;;;;;;5045821;28;20071;-80
2023/08/20 05:20:47;;;;;;;7.28;6.10;;;26.10;96.70;;;;;;5048112;28;20490;-80
2023/08/20 05:23:17;;;;;;;7.13;5.57;;;26.20;96.70;;;;;;5062882;28;20114;-79
2023/08/20 05:25:45;;;;;;;6.00;5.15;;;26.20;96.70;;;;;;5058895;28;20044;-80
2023/08/20 05:28:13;;;;;;;5.97;4.82;;;26.10;96.70;;;;;;5028621;28;20052;-80
2023/08/20 05:30:43;;;;;;;9.55;5.20;;;26.20;96.70;;;;;;5046272;28;20514;-80
2023/08/20 05:33:11;;;;;;;5.93;5.15;;;26.30;96.70;;;;;;5030261;28;20056;-79
2023/08/20 05:35:40;;;;;;;6.70;5.13;;;26.40;96.70;;;;;;5044460;28;20047;-80
2023/08/20 05:38:08;;;;;;;7.70;5.60;;;26.50;96.70;;;;;;5028524;28;20110;-80
2023/08/20 05:40:37;;;;;;;6.93;5.45;;;26.50;96.70;;;;;;5047448;28;20040;-80
2023/08/20 05:43:06;;;;;;;7.85;6.07;;;26.50;96.70;;;;;;5046209;28;20441;-81
2023/08/20 05:45:35;;;;;;;7.68;5.45;;;26.50;96.70;;;;;;5065915;28;20120;-79
2023/08/20 05:48:06;;;;;;;7.32;6.07;;;26.60;96.70;;;;;;5044703;28;20144;-80
2023/08/20 05:50:34;;;;;;;7.07;5.90;;;26.60;96.70;;;;;;5028356;28;20073;-80
2023/08/20 05:53:02;;;;;;;8.82;5.53;;;26.70;96.70;;;;;;5045227;28;20041;-80
2023/08/20 05:55:32;;;;;;;7.72;5.95;;;26.80;96.70;;;;;;5048167;28;20052;-80
2023/08/20 05:58:00;;;;;;;8.23;6.13;;;26.80;96.70;;;;;;5048282;28;20068;-79
2023/08/20 06:00:29;;;;;;;8.98;5.65;;;26.90;96.70;;;;;;5044464;28;20045;-79
2023/08/20 06:02:57;;;;;;;6.68;6.03;;;26.90;96.70;;;;;;5047365;28;20059;-79
2023/08/20 06:05:27;;;;;;;7.70;5.68;;;27.00;96.70;;;;;;5047679;28;20070;-81
2023/08/20 06:07:55;;;;;;;7.40;6.20;;;27.10;96.70;;;;;;5043895;28;20441;-79
2023/08/20 06:10:23;;;;;;;7.03;5.78;;;27.10;96.70;;;;;;5048713;28;20041;-80
2023/08/20 06:12:52;;;;;;;9.40;5.82;;;27.00;96.70;;;;;;5046549;28;20076;-80
2023/08/20 06:15:20;;;;;;;6.25;5.60;;;27.10;96.70;;;;;;5037086;28;20544;-81
2023/08/20 06:17:48;;;;;;;6.80;6.10;;;27.20;96.70;;;;;;5047852;28;20144;-81
2023/08/20 06:20:18;;;;;;;7.72;6.07;;;27.20;96.70;;;;;;5047738;28;20040;-80
2023/08/20 06:22:48;;;;;;;7.07;5.53;;;27.20;96.70;;;;;;5064890;28;20055;-80
2023/08/20 06:25:16;;;;;;;7.10;6.40;;;27.40;96.70;;;;;;5060300;28;20129;-80
2023/08/20 06:27:45;;;;;;;10.13;6.55;;;27.40;96.70;;;;;;5056059;28;20051;-81
2023/08/20 06:30:13;;;;;;;8.85;5.88;;;27.40;96.70;;;;;;5043061;28;20053;-80
2023/08/20 06:32:44;;;;;;;7.03;6.43;;;27.50;96.70;;;;;;5028708;28;20076;-80
2023/08/20 06:35:12;;;;;;;11.18;6.90;;;27.60;96.70;;;;;;5026979;28;20041;-80
2023/08/20 06:37:40;;;;;;;7.78;6.28;;;27.50;96.70;;;;;;5019173;28;20045;-80
2023/08/20 06:40:13;;;;;;;8.88;6.30;;;27.60;96.70;;;;;;5024371;28;20072;-80
2023/08/20 06:42:42;;;;;;;7.57;6.18;;;27.60;96.70;;;;;;5026280;28;20115;-79
2023/08/20 06:45:10;;;;;;;10.88;7.38;;;27.50;96.70;;;;;;5036719;28;20041;-79
2023/08/20 06:47:38;;;;;;;8.27;6.60;;;27.30;96.70;;;;;;5041545;28;20041;-79
2023/08/20 06:50:07;;;;;;;6.68;6.07;;;27.30;96.70;;;;;;5029394;28;20038;-79
2023/08/20 06:52:36;;;;;;;10.25;5.88;;;27.50;96.70;;;;;;5039065;28;20190;-79
2023/08/20 06:55:05;;;;;;;9.75;6.53;;;27.60;96.70;;;;;;5042035;28;20114;-81
2023/08/20 06:57:35;;;;;;;8.95;8.02;;;27.70;96.70;;;;;;5043696;28;20048;-80
2023/08/20 07:00:05;;;;;;;10.15;7.80;;;27.90;96.70;;;;;;5034536;28;20045;-79
2023/08/20 07:02:33;;;;;;;9.00;7.57;;;28.00;96.70;;;;;;5031044;28;20500;-79
2023/08/20 07:05:01;;;;;;;8.25;6.13;;;28.00;96.70;;;;;;5032846;28;20051;-78
2023/08/20 07:07:30;;;;;;;9.10;6.18;;;28.00;96.70;;;;;;5030289;28;20041;-78
2023/08/20 07:09:58;;;;;;;9.02;5.95;;;28.00;96.70;;;;;;5044563;28;20048;-79
2023/08/20 07:12:26;;;;;;;11.18;9.07;;;28.00;96.70;;;;;;5032864;28;20044;-79
2023/08/20 07:14:56;;;;;;;17.45;15.57;;;28.00;96.70;;;;;;5042548;28;20049;-79
2023/08/20 07:17:24;;;;;;;11.25;8.65;;;28.00;96.70;;;;;;5034053;28;20045;-78
2023/08/20 07:19:52;;;;;;;9.45;7.47;;;28.20;96.70;;;;;;5023329;28;20048;-79
2023/08/20 07:22:20;;;;;;;9.75;7.70;;;28.30;96.70;;;;;;5004821;28;20049;-78
2023/08/20 07:24:48;;;;;;;9.68;7.40;;;28.40;96.70;;;;;;5026638;28;20036;-78
2023/08/20 07:27:16;;;;;;;11.65;6.38;;;28.50;96.70;;;;;;5024120;28;20420;-77
2023/08/20 07:29:44;;;;;;;7.20;6.15;;;28.60;96.70;;;;;;5023914;28;20053;-78
2023/08/20 07:32:14;;;;;;;7.18;6.32;;;28.70;96.70;;;;;;5043214;28;20056;-78
2023/08/20 07:34:44;;;;;;;8.15;6.00;;;28.80;96.70;;;;;;5034461;28;20150;-79
2023/08/20 07:37:13;;;;;;;6.57;5.88;;;28.90;96.70;;;;;;5043823;28;20134;-78
2023/08/20 07:39:41;;;;;;;7.40;6.50;;;29.00;96.70;;;;;;5043978;28;20279;-78
2023/08/20 07:42:10;;;;;;;6.35;4.82;;;29.10;96.70;;;;;;5044133;28;20049;-79
2023/08/20 07:44:38;;;;;;;5.82;5.28;;;29.20;96.70;;;;;;5042496;28;20087;-80
2023/08/20 07:47:07;;;;;;;6.22;5.05;;;29.20;96.70;;;;;;5025259;28;20126;-80
2023/08/20 07:49:37;;;;;;;5.90;5.10;;;29.30;96.70;;;;;;5033406;28;20064;-78
2023/08/20 07:52:05;;;;;;;7.15;5.35;;;29.30;96.70;;;;;;5041626;28;20049;-78
2023/08/20 07:54:33;;;;;;;5.65;5.07;;;29.40;96.70;;;;;;5043686;28;20041;-76
2023/08/20 07:57:01;;;;;;;9.55;5.30;;;29.50;96.70;;;;;;5043114;28;20131;-78
2023/08/20 07:59:29;;;;;;;8.50;5.30;;;29.60;96.70;;;;;;5042065;28;20864;-79
2023/08/20 08:01:58;;;;;;;5.55;5.03;;;29.70;96.70;;;;;;5035707;28;20103;-79
2023/08/20 08:04:26;;;;;;;5.90;5.10;;;29.80;96.70;;;;;;5040854;28;20853;-79
2023/08/20 08:06:55;;;;;;;4.90;4.45;;;29.80;96.70;;;;;;5041992;28;20583;-76
2023/08/20 08:09:27;;;;;;;5.47;4.97;;;29.90;96.70;;;;;;5042851;28;20103;-76
2023/08/20 08:11:56;;;;;;;5.53;4.80;;;30.00;96.70;;;;;;5039140;28;20041;-76
2023/08/20 08:14:24;;;;;;;5.35;4.70;;;30.10;96.70;;;;;;5042643;28;20478;-76
2023/08/20 08:16:54;;;;;;;5.32;4.82;;;30.10;96.70;;;;;;5041096;28;20501;-75
2023/08/20 08:19:23;;;;;;;6.20;5.05;;;30.20;96.70;;;;;;5039278;28;20287;-76
2023/08/20 08:21:51;;;;;;;5.65;4.72;;;30.20;96.70;;;;;;5042083;28;20083;-76
2023/08/20 08:24:21;;;;;;;7.47;4.82;;;30.40;96.70;;;;;;5043140;28;20499;-75
2023/08/20 08:26:49;;;;;;;5.00;4.57;;;30.50;96.70;;;;;;5042586;28;20033;-75
2023/08/20 08:29:17;;;;;;;5.65;5.15;;;30.60;96.70;;;;;;5038209;28;20711;-74
2023/08/20 08:31:45;;;;;;;5.25;4.70;;;30.70;96.70;;;;;;5017668;28;21080;-78
2023/08/20 08:34:14;;;;;;;5.78;5.28;;;30.90;96.70;;;;;;5018799;28;20069;-76
2023/08/20 08:36:42;;;;;;;5.53;4.97;;;30.90;96.70;;;;;;5020817;28;20067;-75
2023/08/20 08:39:10;;;;;;;7.45;5.50;;;30.90;96.70;;;;;;5023624;28;20052;-76
2023/08/20 08:41:42;;;;;;;6.03;5.32;;;31.10;96.70;;;;;;5025637;28;20068;-76
2023/08/20 08:44:11;;;;;;;5.65;4.72;;;31.20;96.70;;;;;;5021619;28;20041;-76
2023/08/20 08:46:39;;;;;;;5.88;5.38;;;31.30;96.70;;;;;;5018842;28;20049;-76
2023/08/20 08:49:08;;;;;;;6.80;5.57;;;31.40;96.70;;;;;;5021304;28;20307;-76
2023/08/20 08:51:39;;;;;;;6.55;5.78;;;31.40;96.70;;;;;;5024673;28;20070;-75
2023/08/20 08:54:09;;;;;;;6.05;5.35;;;31.50;96.70;;;;;;5020314;28;20050;-77
2023/08/20 08:56:37;;;;;;;5.80;5.22;;;31.70;96.70;;;;;;5018538;28;20064;-76
2023/08/20 08:59:07;;;;;;;6.15;5.55;;;31.80;96.70;;;;;;5024854;28;20048;-77
2023/08/20 09:01:39;;;;;;;6.28;5.68;;;31.90;96.70;;;;;;5036874;28;20621;-76
2023/08/20 09:04:08;;;;;;;6.45;5.80;;;32.00;96.70;;;;;;5015741;28;20144;-76
2023/08/20 09:06:46;;;;;;;6.40;5.80;;;32.00;96.70;;;;;;5024980;28;20037;-76
2023/08/20 09:09:14;;;;;;;6.63;5.72;;;32.00;96.70;;;;;;5018061;28;20044;-75
2023/08/20 09:11:43;;;;;;;13.35;6.53;;;32.20;96.70;;;;;;5035299;28;20155;-75
2023/08/20 09:14:22;;;;;;;7.78;5.80;;;32.20;96.70;;;;;;5027965;28;20134;-76
2023/08/20 09:16:57;;;;;;;11.45;5.60;;;32.30;96.70;;;;;;5023083;28;20526;-75
2023/08/20 09:19:30;;;;;;;9.20;6.40;;;32.40;96.70;;;;;;5009699;28;20055;-76
2023/08/20 09:22:01;;;;;;;8.05;5.85;;;32.50;96.70;;;;;;5024192;28;20049;-74
2023/08/20 09:24:37;;;;;;;7.25;5.38;;;32.60;96.70;;;;;;5025639;28;20044;-75
2023/08/20 09:27:08;;;;;;;6.57;5.53;;;32.80;96.70;;;;;;5019760;28;20068;-75
2023/08/20 09:29:48;;;;;;;6.35;5.75;;;32.90;96.70;;;;;;5023792;28;20064;-75
2023/08/20 09:32:17;;;;;;;5.60;5.10;;;32.90;96.70;;;;;;5024457;28;20049;-75
2023/08/20 09:34:46;;;;;;;5.25;4.85;;;33.00;96.70;;;;;;5025229;28;20049;-75
2023/08/20 09:37:15;;;;;;;5.70;4.97;;;33.10;96.70;;;;;;5023770;28;20045;-75
2023/08/20 09:39:44;;;;;;;5.35;4.95;;;33.10;96.70;;;;;;5007637;28;20095;-74
2023/08/20 09:42:13;;;;;;;8.68;5.90;;;33.00;96.70;;;;;;5024851;28;20051;-75
2023/08/20 09:44:45;;;;;;;5.80;5.05;;;33.10;96.70;;;;;;5026023;28;20045;-75
2023/08/20 09:47:20;;;;;;;5.95;4.40;;;33.20;96.70;;;;;;5023940;28;20042;-74
2023/08/20 09:49:52;;;;;;;5.45;4.60;;;33.20;96.70;;;;;;5023023;28;20099;-74
2023/08/20 09:52:25;;;;;;;4.55;4.15;;;33.40;96.70;;;;;;5021630;28;20049;-74
2023/08/20 09:55:02;;;;;;;5.20;4.70;;;33.40;96.70;;;;;;5023847;28;20144;-75
2023/08/20 09:57:35;;;;;;;4.85;4.45;;;33.50;96.70;;;;;;5024341;28;20045;-73
2023/08/20 10:00:11;;;;;;;4.95;4.55;;;33.60;96.70;;;;;;5022893;28;20045;-75
2023/08/20 10:02:42;;;;;;;5.82;4.82;;;33.80;96.70;;;;;;5021508;28;20084;-73
2023/08/20 10:05:12;;;;;;;7.90;4.60;;;33.80;96.70;;;;;;5024822;28;20128;-73
2023/08/20 10:07:42;;;;;;;4.78;4.38;;;33.70;96.70;;;;;;5022880;28;20044;-73
2023/08/20 10:10:13;;;;;;;5.50;4.95;;;33.80;96.70;;;;;;5023497;28;20160;-73
2023/08/20 10:12:43;;;;;;;5.30;4.78;;;33.80;96.70;;;;;;5023348;28;20081;-73
2023/08/20 10:15:15;;;;;;;4.72;4.32;;;34.00;96.70;;;;;;5024496;28;20064;-74
2023/08/20 10:17:46;;;;;;;5.63;4.88;;;33.90;96.70;;;;;;5022948;28;20471;-72
2023/08/20 10:20:16;;;;;;;4.90;4.40;;;34.00;96.70;;;;;;5022327;28;20046;-73
2023/08/20 10:22:45;;;;;;;4.88;4.47;;;34.10;96.70;;;;;;5020230;28;20053;-73
2023/08/20 10:25:24;;;;;;;5.38;4.88;;;34.20;96.70;;;;;;5023878;28;20272;-72
2023/08/20 10:27:52;;;;;;;4.47;4.07;;;34.40;96.70;;;;;;5022951;28;20044;-74
2023/08/20 10:30:25;;;;;;;4.95;4.45;;;34.50;96.70;;;;;;5051390;28;20405;-79
2023/08/20 10:32:56;;;;;;;5.10;4.35;;;34.60;96.70;;;;;;5045717;28;20122;-78
2023/08/20 10:35:27;;;;;;;4.90;4.18;;;34.70;96.70;;;;;;5044830;28;20057;-78
2023/08/20 10:38:04;;;;;;;4.53;4.13;;;34.60;96.70;;;;;;5044601;28;20049;-77
2023/08/20 10:40:51;;;;;;;6.88;4.22;;;34.70;96.70;;;;;;5046059;28;20783;-77
2023/08/20 10:43:30;;;;;;;4.53;4.13;;;34.70;96.70;;;;;;5044157;28;20044;-78
2023/08/20 10:46:22;;;;;;;5.40;4.90;;;34.80;96.70;;;;;;5043643;28;20045;-79
2023/08/20 10:48:51;;;;;;;5.30;4.32;;;34.80;96.70;;;;;;5024474;28;20139;-77
2023/08/20 10:51:24;;;;;;;5.07;4.55;;;34.90;96.70;;;;;;5029011;28;20086;-78
2023/08/20 10:54:07;;;;;;;5.07;4.68;;;34.80;96.70;;;;;;5062663;28;20765;-77
2023/08/20 10:56:43;;;;;;;4.68;4.28;;;34.80;96.70;;;;;;5046758;28;20040;-77
2023/08/20 10:59:16;;;;;;;4.85;4.45;;;34.90;96.70;;;;;;5028750;28;20110;-77
2023/08/20 11:01:46;;;;;;;5.43;4.45;;;35.00;96.70;;;;;;5045284;28;20437;-79
2023/08/20 11:04:17;;;;;;;5.85;4.47;;;35.20;96.70;;;;;;5043228;28;20059;-79
2023/08/20 11:06:46;;;;;;;6.68;4.85;;;35.50;96.70;;;;;;5045190;28;20064;-75
2023/08/20 11:09:15;;;;;;;5.10;4.68;;;35.50;96.70;;;;;;5044627;28;20072;-77
2023/08/20 11:11:43;;;;;;;5.28;3.95;;;35.40;96.70;;;;;;5032562;28;20062;-76
2023/08/20 11:14:16;;;;;;;4.63;4.20;;;35.50;96.70;;;;;;5035388;28;20041;-76
2023/08/20 11:16:48;;;;;;;4.35;3.92;;;35.60;96.70;;;;;;5037573;28;20060;-76
2023/08/20 11:19:20;;;;;;;4.25;3.95;;;36.00;96.70;;;;;;5046325;28;20413;-76
2023/08/20 11:21:49;;;;;;;4.38;3.95;;;36.20;96.70;;;;;;5050253;28;20049;-75
2023/08/20 11:24:19;;;;;;;4.00;3.08;;;36.00;96.70;;;;;;5060202;28;20041;-77
2023/08/20 11:26:48;;;;;;;4.35;3.35;;;35.90;96.70;;;;;;5054588;28;20705;-77
2023/08/20 11:29:20;;;;;;;5.07;3.22;;;36.00;96.70;;;;;;5036688;28;20091;-76
2023/08/20 11:31:52;;;;;;;5.32;3.60;;;36.00;96.70;;;;;;5022277;28;20125;-77
2023/08/20 11:34:20;;;;;;;4.85;3.53;;;36.00;96.70;;;;;;5018339;28;20051;-77
2023/08/20 11:36:50;;;;;;;5.97;3.50;;;36.20;96.70;;;;;;5022430;28;20030;-77
2023/08/20 11:39:18;;;;;;;5.45;3.38;;;36.60;96.70;;;;;;5006127;28;20049;-77
2023/08/20 11:41:47;;;;;;;5.90;3.78;;;36.60;96.70;;;;;;5028883;28;20232;-76
2023/08/20 11:44:21;;;;;;;5.68;4.03;;;36.60;96.70;;;;;;5030185;28;20139;-77
2023/08/20 11:46:51;;;;;;;5.60;3.80;;;36.60;96.70;;;;;;5021018;28;20042;-76
2023/08/20 11:49:29;;;;;;;4.00;3.70;;;36.50;96.70;;;;;;5021304;28;20049;-77
2023/08/20 11:51:57;;;;;;;4.15;3.85;;;36.60;96.70;;;;;;5020649;28;20037;-77
2023/08/20 11:54:26;;;;;;;3.92;3.63;;;36.70;96.70;;;;;;5005982;28;20049;-74
2023/08/20 11:57:03;;;;;;;5.13;3.90;;;36.90;96.70;;;;;;5022413;28;20569;-75
2023/08/20 11:59:31;;;;;;;4.28;3.95;;;36.80;96.70;;;;;;5020814;28;20495;-78
2023/08/20 12:02:03;;;;;;;5.32;3.60;;;36.70;96.70;;;;;;5023610;28;20060;-76
2023/08/20 12:04:33;;;;;;;3.60;3.30;;;36.70;96.70;;;;;;5018970;28;20077;-77
2023/08/20 12:07:05;;;;;;;4.20;3.53;;;36.70;96.70;;;;;;5020780;28;20046;-77
2023/08/20 12:09:33;;;;;;;4.85;3.40;;;36.90;96.70;;;;;;5021085;28;20099;-76
2023/08/20 12:12:05;;;;;;;5.88;3.97;;;37.00;96.70;;;;;;5021617;28;20092;-74
2023/08/20 12:14:33;;;;;;;5.60;3.28;;;37.10;96.70;;;;;;5020725;28;20077;-75
2023/08/20 12:17:04;;;;;;;4.07;3.78;;;37.30;96.70;;;;;;5005774;28;20041;-75
2023/08/20 12:19:34;;;;;;;3.92;3.55;;;37.20;96.70;;;;;;5021070;28;20037;-78
2023/08/20 12:22:04;;;;;;;4.28;3.88;;;37.10;96.70;;;;;;5020768;28;20050;-76
2023/08/20 12:24:32;;;;;;;5.80;4.00;;;37.10;96.70;;;;;;5023316;28;20056;-76
2023/08/20 12:27:00;;;;;;;5.60;4.07;;;37.20;96.70;;;;;;5021926;28;20095;-76
2023/08/20 12:29:29;;;;;;;5.85;3.63;;;37.30;96.70;;;;;;5014574;28;20407;-77
2023/08/20 12:31:58;;;;;;;5.68;4.00;;;37.30;96.70;;;;;;5043148;28;20044;-77
2023/08/20 12:34:29;;;;;;;4.03;3.63;;;37.20;96.70;;;;;;5041807;28;20049;-78
2023/08/20 12:36:57;;;;;;;4.47;4.07;;;37.20;96.70;;;;;;5044127;28;20046;-81
2023/08/20 12:39:26;;;;;;;3.75;3.45;;;37.30;96.70;;;;;;5062029;28;20041;-79
2023/08/20 12:41:55;;;;;;;4.20;3.85;;;37.50;96.70;;;;;;5027832;28;20561;-78
2023/08/20 12:44:23;;;;;;;4.00;3.35;;;37.40;96.70;;;;;;5048076;28;20060;-77
2023/08/20 12:46:52;;;;;;;4.93;3.70;;;37.50;96.70;;;;;;5068859;28;20704;-76
2023/08/20 12:49:20;;;;;;;3.42;3.13;;;37.70;96.70;;;;;;5063387;28;20060;-77
2023/08/20 12:51:50;;;;;;;3.50;3.20;;;37.80;96.70;;;;;;5046616;28;20052;-76
2023/08/20 12:54:18;;;;;;;6.28;3.70;;;37.50;96.70;;;;;;5032432;28;20047;-76
2023/08/20 12:56:47;;;;;;;4.57;3.65;;;37.60;96.70;;;;;;5047465;28;20453;-77
2023/08/20 12:59:15;;;;;;;6.30;3.80;;;37.90;96.70;;;;;;5061414;28;20159;-77